createdAt,value
2018-01-18T00:00:21.500Z,3.37
2018-01-18T00:02:56.342Z,1.73
2018-01-18T00:05:30.336Z,1.98
2018-01-18T00:08:04.975Z,0.80
2018-01-18T00:10:39.520Z,1.58
2018-01-18T00:13:13.513Z,1.40
2018-01-18T00:15:47.578Z,1.58
2018-01-18T00:18:21.866Z,1.00
2018-01-18T00:20:55.859Z,1.10
2018-01-18T00:23:29.865Z,1.10
2018-01-18T00:26:04.097Z,1.45
2018-01-18T00:28:38.334Z,1.25
2018-01-18T00:31:12.547Z,0.88
2018-01-18T00:33:47.269Z,0.98
2018-01-18T00:36:21.547Z,1.33
2018-01-18T00:38:57.218Z,1.50
2018-01-18T00:41:31.713Z,1.05
2018-01-18T00:44:05.520Z,0.77
2018-01-18T00:46:39.462Z,1.70
2018-01-18T00:49:14.320Z,1.40
2018-01-18T00:51:49.126Z,1.45
2018-01-18T00:54:23.794Z,1.05
2018-01-18T00:56:57.625Z,1.35
2018-01-18T00:59:31.712Z,1.15
2018-01-18T01:02:08.869Z,1.12
2018-01-18T01:04:42.637Z,0.85
2018-01-18T01:07:17.872Z,12.50
2018-01-18T01:09:51.932Z,46.47
2018-01-18T01:12:27.079Z,33.63
2018-01-18T01:15:01.840Z,44.05
2018-01-18T01:17:36.923Z,12.98
2018-01-18T01:20:11.090Z,4.85
2018-01-18T01:22:45.427Z,4.32
2018-01-18T01:25:19.602Z,3.15
2018-01-18T01:27:53.471Z,0.80
2018-01-18T01:30:27.386Z,1.92
2018-01-18T01:33:01.286Z,1.35
2018-01-18T01:35:35.173Z,1.08
2018-01-18T01:38:09.170Z,0.73
2018-01-18T01:40:43.624Z,0.68
2018-01-18T01:43:18.399Z,1.50
2018-01-18T01:45:53.371Z,0.90
2018-01-18T01:48:38.350Z,1.02
2018-01-18T01:51:13.201Z,0.82
2018-01-18T01:53:47.809Z,1.15
2018-01-18T01:56:22.691Z,0.88
2018-01-18T01:58:57.547Z,0.57
2018-01-18T02:01:31.983Z,1.00
2018-01-18T02:04:05.865Z,1.40
2018-01-18T02:06:39.815Z,0.75
2018-01-18T02:09:14.913Z,0.70
2018-01-18T02:11:49.771Z,1.30
2018-01-18T02:14:24.407Z,1.87
2018-01-18T02:16:58.398Z,0.75
2018-01-18T02:19:32.557Z,0.68
2018-01-18T02:22:06.546Z,0.90
2018-01-18T02:24:41.177Z,1.42
2018-01-18T02:27:14.961Z,3.75
2018-01-18T02:29:49.618Z,38.63
2018-01-18T02:32:24.691Z,87.12
2018-01-18T02:34:58.544Z,72.93
2018-01-18T02:37:32.493Z,43.22
2018-01-18T02:40:06.282Z,20.20
2018-01-18T02:42:43.839Z,15.45
2018-01-18T02:45:19.083Z,1.48
2018-01-18T02:47:53.205Z,1.85
2018-01-18T02:50:27.296Z,0.82
2018-01-18T02:53:01.287Z,1.10
2018-01-18T02:55:35.161Z,0.57
2018-01-18T02:58:09.160Z,0.75
2018-01-18T03:00:42.982Z,0.60
2018-01-18T03:03:16.872Z,1.00
2018-01-18T03:05:50.726Z,1.58
2018-01-18T03:08:24.456Z,0.85
2018-01-18T03:10:58.487Z,0.95
2018-01-18T03:13:33.465Z,1.02
2018-01-18T03:16:10.475Z,0.88
2018-01-18T03:18:45.141Z,2.25
2018-01-18T03:21:19.479Z,0.90
2018-01-18T03:23:53.575Z,1.52
2018-01-18T03:26:27.465Z,1.45
2018-01-18T03:29:02.509Z,1.40
2018-01-18T03:31:36.501Z,0.80
2018-01-18T03:34:11.639Z,1.20
2018-01-18T03:36:45.789Z,0.80
2018-01-18T03:39:20.138Z,0.62
2018-01-18T03:41:53.936Z,0.95
2018-01-18T03:44:28.326Z,0.70
2018-01-18T03:47:02.021Z,0.80
2018-01-18T03:49:36.713Z,1.75
2018-01-18T03:52:10.718Z,0.82
2018-01-18T03:54:44.959Z,44.60
2018-01-18T03:57:19.664Z,105.03
2018-01-18T03:59:53.608Z,123.70
2018-01-18T04:02:28.065Z,51.97
2018-01-18T04:05:02.528Z,8.43
2018-01-18T04:07:36.454Z,3.12
2018-01-18T04:10:10.631Z,3.45
2018-01-18T04:12:44.579Z,1.58
2018-01-18T04:15:18.496Z,0.60
2018-01-18T04:17:52.500Z,0.57
2018-01-18T04:20:26.670Z,1.15
2018-01-18T04:23:01.389Z,0.60
2018-01-18T04:25:35.344Z,0.40
2018-01-18T04:28:09.353Z,1.10
2018-01-18T04:30:43.364Z,0.55
2018-01-18T04:33:17.106Z,1.25
2018-01-18T04:35:52.227Z,0.60
2018-01-18T04:38:26.535Z,0.70
2018-01-18T04:41:01.056Z,0.50
2018-01-18T04:43:35.541Z,0.90
2018-01-18T07:40:07.048Z,0.45
2018-01-18T07:42:41.154Z,0.82
2018-01-18T07:45:16.079Z,0.40
2018-01-18T07:47:51.432Z,2.55
2018-01-18T07:50:25.580Z,0.75
2018-01-18T07:53:00.401Z,0.50
2018-01-18T07:55:35.046Z,0.80
2018-01-18T07:58:09.402Z,0.40
2018-01-18T08:00:43.507Z,56.95
2018-01-18T08:03:24.888Z,44.28
2018-01-18T08:05:58.957Z,23.27
2018-01-18T08:08:35.226Z,61.78
2018-01-18T08:11:09.992Z,8.10
2018-01-18T08:13:43.939Z,5.97
2018-01-18T08:16:18.050Z,3.10
2018-01-18T08:18:52.726Z,0.40
2018-01-18T08:21:26.651Z,1.67
2018-01-18T08:24:00.700Z,0.50
2018-01-18T08:26:35.245Z,0.52
2018-01-18T08:29:10.588Z,0.40
2018-01-18T08:31:44.420Z,0.60
2018-01-18T08:34:18.767Z,0.45
2018-01-18T08:36:53.563Z,0.40
2018-01-18T08:39:28.104Z,0.55
2018-01-18T08:42:04.045Z,2.35
2018-01-18T08:44:39.636Z,0.82
2018-01-18T08:47:15.512Z,0.50
2018-01-18T08:49:49.547Z,0.40
2018-01-18T08:52:23.845Z,0.40
2018-01-18T08:54:58.170Z,0.60
2018-01-18T08:57:33.689Z,0.77
2018-01-18T09:00:09.324Z,0.60
2018-01-18T09:02:43.427Z,0.57
2018-01-18T09:05:17.508Z,0.70
2018-01-18T09:07:52.444Z,0.50
2018-01-18T09:10:27.160Z,0.57
2018-01-18T09:13:01.958Z,0.50
2018-01-18T09:15:36.062Z,0.50
2018-01-18T09:18:10.050Z,1.70
2018-01-18T09:20:44.166Z,40.92
2018-01-18T09:23:19.946Z,61.20
2018-01-18T09:25:54.221Z,26.98
2018-01-18T09:28:28.930Z,24.15
2018-01-18T09:31:02.965Z,15.80
2018-01-18T09:33:37.272Z,4.30
2018-01-18T09:36:11.102Z,6.20
2018-01-18T09:38:45.221Z,0.90
2018-01-18T09:41:19.400Z,0.60
2018-01-18T09:43:53.431Z,1.70
2018-01-18T09:46:28.562Z,0.80
2018-01-18T09:49:03.649Z,0.80
2018-01-18T09:51:37.525Z,1.48
2018-01-18T09:54:11.384Z,1.30
2018-01-18T09:56:45.554Z,0.70
2018-01-18T09:59:20.635Z,0.50
2018-01-18T10:01:54.853Z,0.47
2018-01-18T10:04:29.542Z,0.40
2018-01-18T10:07:05.043Z,0.70
2018-01-18T10:09:38.985Z,0.43
2018-01-18T10:12:12.855Z,0.50
2018-01-18T10:14:46.700Z,0.55
2018-01-18T10:17:20.703Z,0.40
2018-01-18T10:19:54.588Z,0.40
2018-01-18T10:22:29.598Z,0.40
2018-01-18T10:25:03.689Z,0.70
2018-01-18T10:27:37.660Z,0.73
2018-01-18T10:30:11.590Z,0.82
2018-01-18T10:32:45.444Z,1.20
2018-01-18T10:35:20.111Z,3.65
2018-01-18T10:37:54.064Z,12.35
2018-01-18T10:40:29.660Z,14.25
2018-01-18T10:43:03.613Z,11.90
2018-01-18T10:45:38.464Z,24.70
2018-01-18T10:48:13.109Z,15.23
2018-01-18T10:50:48.301Z,10.18
2018-01-18T10:53:22.161Z,3.35
2018-01-18T10:55:55.907Z,1.02
2018-01-18T10:58:31.954Z,1.05
2018-01-18T11:01:06.740Z,0.77
2018-01-18T11:03:41.562Z,0.70
2018-01-18T11:06:15.529Z,1.00
2018-01-18T11:08:49.982Z,2.53
2018-01-18T11:11:23.870Z,0.47
2018-01-18T11:13:58.629Z,0.75
2018-01-18T11:16:32.304Z,4.03
2018-01-18T11:19:06.536Z,1.42
2018-01-18T11:21:41.616Z,0.70
2018-01-18T11:24:15.358Z,0.50
2018-01-18T11:26:50.503Z,0.40
2018-01-18T11:29:25.232Z,0.55
2018-01-18T11:31:59.112Z,1.37
2018-01-18T11:34:33.371Z,0.40
2018-01-18T11:37:07.285Z,2.35
2018-01-18T11:39:41.111Z,3.00
2018-01-18T11:42:15.036Z,1.15
2018-01-18T11:44:50.617Z,0.50
2018-01-18T11:47:25.975Z,1.83
2018-01-18T11:50:01.298Z,0.60
2018-01-18T11:52:36.261Z,0.62
2018-01-18T11:55:10.223Z,27.02
2018-01-18T11:57:44.568Z,24.20
2018-01-18T12:00:18.423Z,24.83
2018-01-18T12:02:52.297Z,59.40
2018-01-18T12:05:26.229Z,42.97
2018-01-18T12:08:01.102Z,16.55
2018-01-18T12:10:36.157Z,3.62
2018-01-18T12:13:10.542Z,6.62
2018-01-18T12:15:45.058Z,0.60
2018-01-18T12:18:19.121Z,0.40
2018-01-18T12:20:53.250Z,1.45
2018-01-18T12:23:29.005Z,1.75
2018-01-18T12:26:02.900Z,0.60
2018-01-18T12:28:37.001Z,0.40
2018-01-18T12:31:10.882Z,0.60
2018-01-18T12:33:46.273Z,0.77
2018-01-18T12:36:20.710Z,0.55
2018-01-18T12:38:54.633Z,1.08
2018-01-18T12:41:28.445Z,0.52
2018-01-18T12:44:02.858Z,1.60
2018-01-18T12:46:37.074Z,1.08
2018-01-18T12:49:11.812Z,0.40
2018-01-18T12:51:47.266Z,0.60
2018-01-18T12:54:21.155Z,0.50
2018-01-18T12:56:55.898Z,0.80
2018-01-18T12:59:30.026Z,0.60
2018-01-18T13:02:05.179Z,0.40
2018-01-18T13:04:39.168Z,0.47
2018-01-18T13:07:13.492Z,0.40
2018-01-18T13:09:47.377Z,2.58
2018-01-18T13:12:21.622Z,6.80
2018-01-18T13:14:56.493Z,15.13
2018-01-18T13:17:30.524Z,15.63
2018-01-18T13:20:04.535Z,9.45
2018-01-18T13:22:39.242Z,2.35
2018-01-18T13:25:13.493Z,1.08
2018-01-18T13:27:47.414Z,0.60
2018-01-18T13:30:21.431Z,0.60
2018-01-18T13:32:55.698Z,0.73
2018-01-18T13:35:30.265Z,0.40
2018-01-18T13:38:04.859Z,0.95
2018-01-18T13:40:38.995Z,0.77
2018-01-18T13:43:13.006Z,0.50
2018-01-18T13:45:47.415Z,0.50
2018-01-18T13:48:22.223Z,0.40
2018-01-18T13:50:56.467Z,1.12
2018-01-18T13:53:30.603Z,0.82
2018-01-18T13:56:05.548Z,0.70
2018-01-18T13:58:39.787Z,0.50
2018-01-18T14:01:16.840Z,0.60
2018-01-18T14:03:51.087Z,0.77
2018-01-18T14:06:25.288Z,0.50
2018-01-18T14:08:58.987Z,0.62
2018-01-18T14:11:32.789Z,0.93
2018-01-18T14:14:06.841Z,0.90
2018-01-18T14:16:40.706Z,0.70
2018-01-18T14:19:14.720Z,2.12
2018-01-18T14:21:49.050Z,39.58
2018-01-18T14:24:23.585Z,19.92
2018-01-18T14:26:58.584Z,19.37
2018-01-18T14:29:33.376Z,11.45
2018-01-18T14:32:08.010Z,3.50
2018-01-18T14:34:42.500Z,0.77
2018-01-18T14:37:16.594Z,0.70
2018-01-18T14:39:50.444Z,0.50
2018-01-18T14:42:25.235Z,0.65
2018-01-18T14:44:59.244Z,0.77
2018-01-18T14:50:07.851Z,1.20
2018-01-18T14:52:42.003Z,0.82
2018-01-18T14:55:17.203Z,0.40
2018-01-18T14:57:51.406Z,0.80
2018-01-18T15:00:26.882Z,0.50
2018-01-18T15:03:01.652Z,0.50
2018-01-18T15:05:36.139Z,0.80
2018-01-18T15:08:10.569Z,0.40
2018-01-18T15:10:44.485Z,0.70
2018-01-18T15:13:18.432Z,0.50
2018-01-18T15:15:53.362Z,0.82
2018-01-18T15:18:28.227Z,5.20
2018-01-18T15:21:05.203Z,0.60
2018-01-18T15:23:39.082Z,0.60
2018-01-18T15:26:12.790Z,11.88
2018-01-18T15:28:46.826Z,21.35
2018-01-18T15:31:20.919Z,28.75
2018-01-18T15:33:54.935Z,29.98
2018-01-18T15:36:29.077Z,20.37
2018-01-18T15:39:03.084Z,16.05
2018-01-18T15:41:37.734Z,5.45
2018-01-18T15:44:12.180Z,3.78
2018-01-18T15:46:47.039Z,2.50
2018-01-18T15:49:22.098Z,1.58
2018-01-18T15:51:58.486Z,1.00
2018-01-18T15:54:32.610Z,1.83
2018-01-18T15:57:07.405Z,0.98
2018-01-18T15:59:41.379Z,1.90
2018-01-18T16:02:15.205Z,1.17
2018-01-18T16:04:49.266Z,0.80
2018-01-18T16:07:23.435Z,2.55
2018-01-18T16:09:57.494Z,1.15
2018-01-18T16:12:31.479Z,1.10
2018-01-18T16:15:05.412Z,0.77
2018-01-18T16:17:40.065Z,1.10
2018-01-18T16:20:14.096Z,1.08
2018-01-18T16:22:49.005Z,1.25
2018-01-18T16:25:24.300Z,1.73
2018-01-18T16:27:58.348Z,1.52
2018-01-18T16:30:32.185Z,1.05
2018-01-18T16:33:07.076Z,0.95
2018-01-18T16:35:41.987Z,1.17
2018-01-18T16:38:16.222Z,1.10
2018-01-18T16:40:50.938Z,3.10
2018-01-18T16:43:24.905Z,9.10
2018-01-18T16:45:59.798Z,16.87
2018-01-18T16:48:33.713Z,9.95
2018-01-18T16:51:08.569Z,5.45
2018-01-18T16:53:42.941Z,4.55
2018-01-18T16:56:16.872Z,2.35
2018-01-18T16:58:50.811Z,6.72
2018-01-18T17:01:24.801Z,2.65
2018-01-18T17:03:58.802Z,2.30
2018-01-18T17:06:33.373Z,1.55
2018-01-18T17:09:07.370Z,1.00
2018-01-18T17:11:41.452Z,1.70
2018-01-18T17:14:15.759Z,1.85
2018-01-18T17:16:49.905Z,4.72
2018-01-18T17:19:23.725Z,2.00
2018-01-18T17:21:57.976Z,3.20
2018-01-18T17:24:32.333Z,1.90
2018-01-18T17:27:06.809Z,3.60
2018-01-18T17:29:40.919Z,3.40
2018-01-18T17:32:15.135Z,1.12
2018-01-18T17:34:49.371Z,1.58
2018-01-18T17:37:25.579Z,1.12
2018-01-18T17:40:00.505Z,2.22
2018-01-18T17:42:34.407Z,0.85
2018-01-18T17:45:09.303Z,1.02
2018-01-18T17:47:43.125Z,1.02
2018-01-18T17:50:17.476Z,1.60
2018-01-18T17:52:51.404Z,0.60
2018-01-18T17:55:27.100Z,0.70
2018-01-18T17:58:01.102Z,0.70
2018-01-18T18:00:35.500Z,3.65
2018-01-18T18:03:10.639Z,3.95
2018-01-18T18:05:46.717Z,7.85
2018-01-18T18:08:20.945Z,12.98
2018-01-18T18:10:54.718Z,11.15
2018-01-18T18:13:28.569Z,6.78
2018-01-18T18:16:03.541Z,2.17
2018-01-18T18:18:37.459Z,0.77
2018-01-18T18:21:11.321Z,0.60
2018-01-18T18:23:45.375Z,1.50
2018-01-18T18:26:19.305Z,1.58
2018-01-18T18:28:54.192Z,0.60
2018-01-18T18:31:29.050Z,0.93
2018-01-18T18:34:03.569Z,1.67
2018-01-18T18:36:38.560Z,1.15
2018-01-18T18:39:12.524Z,1.08
2018-01-18T18:41:46.557Z,0.90
2018-01-18T18:44:20.794Z,1.60
2018-01-18T18:46:56.397Z,0.88
2018-01-18T18:49:30.377Z,1.30
2018-01-18T18:52:05.487Z,3.40
2018-01-18T18:54:40.112Z,1.83
2018-01-18T18:57:13.925Z,1.05
2018-01-18T18:59:49.990Z,1.62
2018-01-18T19:02:24.114Z,1.77
2018-01-18T19:04:58.907Z,1.40
2018-01-18T19:07:33.870Z,2.17
2018-01-18T19:10:07.775Z,0.90
2018-01-18T19:12:42.043Z,2.55
2018-01-18T19:15:17.054Z,6.10
2018-01-18T19:17:52.066Z,1.70
2018-01-18T19:20:26.602Z,2.08
2018-01-18T19:23:00.551Z,30.48
2018-01-18T19:25:36.363Z,14.30
2018-01-18T19:28:12.023Z,18.42
2018-01-18T19:30:48.421Z,26.10
2018-01-18T19:33:22.291Z,11.68
2018-01-18T19:35:59.204Z,6.78
2018-01-18T19:38:33.359Z,4.00
2018-01-18T19:41:08.102Z,3.35
2018-01-18T19:43:42.391Z,2.97
2018-01-18T19:46:17.454Z,1.17
2018-01-18T19:48:51.179Z,1.45
2018-01-18T19:51:24.857Z,1.92
2018-01-18T19:53:59.443Z,1.75
2018-01-18T19:56:33.339Z,1.35
2018-01-18T19:59:07.082Z,0.82
2018-01-18T20:01:40.891Z,1.10
2018-01-18T20:04:17.942Z,1.17
2018-01-18T20:06:52.643Z,0.62
2018-01-18T20:09:26.460Z,1.35
2018-01-18T20:12:00.210Z,2.05
2018-01-18T20:14:35.860Z,1.12
2018-01-18T20:17:10.395Z,1.30
2018-01-18T20:19:44.957Z,2.28
2018-01-18T20:22:19.550Z,1.00
2018-01-18T20:24:53.497Z,0.70
2018-01-18T20:27:27.979Z,2.05
2018-01-18T20:30:01.817Z,0.80
2018-01-18T20:32:35.524Z,0.80
2018-01-18T20:35:09.269Z,0.90
2018-01-18T20:37:43.059Z,0.95
2018-01-18T20:40:16.642Z,1.55
2018-01-18T20:42:50.454Z,5.40
2018-01-18T20:45:24.076Z,3.08
2018-01-18T20:47:57.815Z,2.65
2018-01-18T20:50:31.413Z,1.50
2018-01-18T20:53:04.970Z,1.10
2018-01-18T20:55:38.550Z,0.70
2018-01-18T20:58:12.107Z,0.82
2018-01-18T21:00:46.448Z,0.85
2018-01-18T21:03:20.756Z,0.73
2018-01-18T21:05:54.537Z,0.70
2018-01-18T21:08:28.123Z,0.50
2018-01-18T21:11:01.846Z,0.50
2018-01-18T21:13:35.530Z,0.80
2018-01-18T21:16:09.833Z,0.55
2018-01-18T21:18:43.370Z,0.70
2018-01-18T21:21:16.965Z,0.60
2018-01-18T21:23:50.521Z,0.80
2018-01-18T21:26:24.170Z,1.55
2018-01-18T21:28:58.764Z,0.70
2018-01-18T21:31:32.328Z,0.85
2018-01-18T21:34:06.045Z,0.60
2018-01-18T21:36:39.667Z,0.50
2018-01-18T21:39:13.408Z,0.75
2018-01-18T21:41:47.070Z,1.70
2018-01-18T21:44:20.812Z,1.50
2018-01-18T21:46:54.406Z,6.47
2018-01-18T21:49:28.035Z,9.32
2018-01-18T21:52:01.579Z,1.00
2018-01-18T21:54:35.051Z,0.80
2018-01-18T21:57:08.679Z,0.75
2018-01-18T21:59:42.214Z,1.50
2018-01-18T22:02:15.889Z,0.60
2018-01-18T22:04:49.463Z,1.20
2018-01-18T22:07:23.141Z,0.90
2018-01-18T22:09:56.755Z,1.05
2018-01-18T22:12:30.473Z,0.75
2018-01-18T22:15:04.041Z,0.60
2018-01-18T22:17:37.867Z,0.75
2018-01-18T22:20:11.594Z,0.70
2018-01-18T22:22:45.954Z,0.70
2018-01-18T22:25:19.458Z,1.12
2018-01-18T22:27:53.064Z,1.40
2018-01-18T22:30:26.643Z,1.40
2018-01-18T22:33:00.408Z,1.40
2018-01-18T22:35:34.113Z,1.10
2018-01-18T22:38:07.751Z,1.27
2018-01-18T22:40:41.337Z,0.95
2018-01-18T22:43:14.883Z,0.95
2018-01-18T22:45:48.462Z,1.45
2018-01-18T22:48:22.044Z,5.70
2018-01-18T22:50:55.699Z,11.20
2018-01-18T22:53:29.265Z,2.10
2018-01-18T22:56:02.855Z,1.48
2018-01-18T22:58:36.494Z,2.22
2018-01-18T23:01:10.071Z,0.75
2018-01-18T23:03:43.684Z,0.88
2018-01-18T23:06:17.201Z,2.50
2018-01-18T23:08:50.783Z,0.88
2018-01-18T23:11:24.432Z,0.88
2018-01-18T23:13:57.922Z,0.80
2018-01-18T23:16:32.286Z,0.50
2018-01-18T23:19:05.919Z,0.50
2018-01-18T23:21:39.484Z,0.70
2018-01-18T23:24:13.919Z,0.50
2018-01-18T23:26:47.434Z,0.95
2018-01-18T23:29:21.945Z,0.77
2018-01-18T23:31:55.689Z,0.40
2018-01-18T23:34:30.102Z,0.50
2018-01-18T23:37:04.571Z,0.40
2018-01-18T23:39:38.179Z,0.70
2018-01-18T23:42:11.678Z,0.40
2018-01-18T23:44:46.005Z,1.08
2018-01-18T23:47:20.428Z,4.72
2018-01-18T23:49:54.943Z,3.10
2018-01-18T23:52:28.556Z,1.77
2018-01-18T23:55:02.963Z,1.87
2018-01-18T23:57:36.593Z,1.05
